Station info - map view · info · telemetry · weather · raw · status · beacons · messages · bulletins · browse · moving · my account
Callsign, ship name or locator: Clear       
It is possible to search using wildcards (*?) after a prefix. Example: OH*
APRS station N6TP-9 - show graphs
Map loading...
Mic-E message: Off duty
Location: 37°31.31' N 122°18.35' W - locator CM87UM35HF - show map - static map
2.1 miles East bearing 92° from Highlands-Baywood Park, San Mateo County, California, United States [?]
3.0 miles South bearing 159° from San Mateo, San Mateo County, California, United States
18.5 miles South bearing 160° from San Francisco, San Francisco County, California, United States
25.8 miles Northwest bearing 299° from San Jose, Santa Clara County, California, United States
Last position: 2017-03-15 19:00:35 EDT (9d 18h34m ago)
2017-03-15 16:00:35 PDT local time at Highlands-Baywood Park, United States [?]
Altitude: 446 ft
Course: 340°
Speed: 9 MPH
Device: Yaesu: FTM-400DR (rig)
Last path: N6TP-9>SWSQSQ via WIDE1-1,WIDE2-1,qAR,W6YX-5 (good)
Positions stored: 6659
Stations near current position of N6TP-9 - show more
callsign distance last heard - EDT      callsign distance last heard - EDT
DW0618419.4 yards 316°2017-03-25 13:21:13 CW47510.4 miles 207°2017-03-25 13:31:18
KJ6GEA0.9 miles 33°2017-03-25 13:32:35 CW07911.3 miles 183°2017-03-11 00:05:28
W6FJC-41.7 miles 106°2017-03-07 22:03:01 KR1TTR2.0 miles 258°2017-03-14 01:11:02
IZ2GMV-92.0 miles 34°2017-03-13 17:31:17 DW64832.1 miles 296°2017-03-25 13:28:38
KM6BHU2.1 miles 139°2017-03-15 23:14:51 KI6KVZ-52.2 miles 22°2017-02-28 22:21:47
N6MEH-22.2 miles 78°2017-03-23 14:26:32 EW40762.4 miles 326°2017-03-25 13:29:44
EW95022.4 miles 133°2017-03-25 13:22:24 AA6PL-92.7 miles 118°2017-03-22 20:18:27
KK6ZSN2.9 miles 329°2017-03-13 17:25:37 KV6KV-73.0 miles 101°2017-03-13 19:57:22
KSQL3.1 miles 97°2017-03-03 23:14:43 KM6BHU-73.1 miles 108°2017-03-16 22:16:17
KM6BHU-103.1 miles 116°2017-03-10 01:31:03 W6MPR3.2 miles 54°2017-03-25 13:20:40
Stations which heard N6TP-9 directly on radio –
callsign pkts first heard - EDT last heard longest (tx => rx) longest at - EDT
K6TUO-3 12 2017-03-14 14:55:48 2017-03-15 17:50:07 CM97GR > CM98TA 65.7 miles 72° 2017-03-15 17:50:07
W6BXN-3 2 2017-03-15 16:19:56 2017-03-15 17:56:29 CM97ER > CM97XM 86.1 miles 99° 2017-03-15 17:56:29
WR6ABD 1 2017-03-15 18:32:19 2017-03-15 18:32:19 CM87XQ > CM97BC 40.7 miles 161° 2017-03-15 18:32:19
W6CX-3 20 2017-03-15 15:00:26 2017-03-15 18:12:40 CM98TE > CM97BV 84.9 miles 257° 2017-03-15 15:00:26
RANCHO 1 2017-03-15 17:54:14 2017-03-15 17:54:14 CM97FR > CM98QR 84.8 miles 36° 2017-03-15 17:54:14
N6WKZ-3 2 2017-03-15 18:59:17 2017-03-15 19:00:37 CM87UM > CM87SS 18.8 miles 338° 2017-03-15 18:59:17
WA6ODP-3 4 2017-03-15 18:00:38 2017-03-15 18:08:15 CM97DR > CM97AP 13.8 miles 254° 2017-03-15 18:00:38
W6YX-5 3 2017-03-15 18:46:53 2017-03-15 19:00:35 CM87VO > CM87WJ 13.5 miles 161° 2017-03-15 18:46:53
WB6TMS-3 4 2017-03-15 18:46:53 2017-03-15 18:58:44 CM87UM > CM87LX 50.8 miles 310° 2017-03-15 18:58:44
N6ZX-3 12 2017-03-14 14:53:14 2017-03-15 18:51:16 CM98TE > CM87UK 117.4 miles 245° 2017-03-14 14:53:14
K6CDF-8 4 2017-03-15 15:33:42 2017-03-15 15:42:51 CM98TE > CM89SC 130.5 miles 300° 2017-03-15 15:33:42
K7FED-1 16 2017-03-15 16:16:51 2017-03-15 17:58:13 CM97QX > CM97FP 53.7 miles 244° 2017-03-15 16:17:37
KQ6DI-1 1 2017-03-15 17:57:28 2017-03-15 17:57:28 CM97ER > DM07BU 96.9 miles 84° 2017-03-15 17:57:28
K6SJC-1 12 2017-03-15 17:02:38 2017-03-15 17:58:08 CM97ER > CM97JV 25.0 miles 60° 2017-03-15 17:58:08
VACA 8 2017-03-15 15:35:58 2017-03-15 17:12:40 CM98TE > CM88WJ 95.1 miles 280° 2017-03-15 15:36:30
GLNVW-1 1 2017-03-15 18:21:54 2017-03-15 18:21:54 CM87XQ > CM87VT 11.5 miles 314° 2017-03-15 18:21:54
WB6IVK-1 10 2017-03-10 23:34:23 2017-03-15 17:17:37 CM98TE > CM88SI 111.5 miles 277° 2017-03-14 14:57:46
WB6TMS-6 1 2017-03-15 18:59:54 2017-03-15 18:59:54 CM87UM > CM88QB 40.4 miles 336° 2017-03-15 18:59:54
N6VUD-15 2 2017-03-15 18:44:50 2017-03-15 18:50:31 CM87UN > CM87VV 23.0 miles 11° 2017-03-15 18:50:31
BKELEY 3 2017-03-15 18:52:15 2017-03-15 18:59:55 CM87UM > CM87VU 24.2 miles 11° 2017-03-15 18:59:55
KK6ZL-10 3 2017-03-15 18:09:40 2017-03-15 18:14:22 CM97AQ > CM97BQ 3.2 miles 113° 2017-03-15 18:14:22
K6QXY-7 1 2017-03-15 18:58:43 2017-03-15 18:58:43 CM87UM > CM88QL 69.2 miles 346° 2017-03-15 18:58:43
NZ6J-13 1 2017-03-15 18:52:14 2017-03-15 18:52:14 CM87UN > CM87RW 29.8 miles 332° 2017-03-15 18:52:14
KJ6RRX-15 5 2017-03-15 18:19:08 2017-03-15 18:59:53 CM87UM > CM87WO 13.2 miles 58° 2017-03-15 18:59:53

Only position packets which were originated by the station are shown here. The range statistics show some extra long hops, because some digipeaters do not correctly add themselves to the digipeater path. Please check the raw packets.
About this site
This page shows real-time information collected from the Automatic Position Reporting System Internet network (APRS-IS). APRS is used by amateur (ham) radio operators to transmit real-time position information, weather data, telemetry and messages over the radio. A vehicle equipped with a GPS receiver, a VHF transmitter or HF transceiver and a small computer device called a tracker transmits it's location, speed and course in a small data packet, which is then received by a nearby iGate receiving site which forwards the packet on the Internet. Systems connected to the Internet can send information on the APRS-IS without a radio transmitter, or collect and display information transmitted anywhere in the world.
FAQ · Blog · Discussion group · Linking to aprs.fi · AIS sites · Service status · Database statistics · Advertising on aprs.fi · Technical details · API · Change log · Planned changes · Credits and thanks · Terms Of Service · iPhone/iPad APRS